Sanford, Virginia
Current Conditions -  °F | °C
As of 5:54 AM on Sunday 21 Dec 2014 (Local Time) from KWAL Reporting Station
Overcast Overcast  
Wind Chill: 27°   Ceiling: 7500
Heat Index: 32°   Visibility: 10mi
Dew Point: 26°   Wind: 5mph
Humidity: 79%   Direction: 10°N
Pressure: 30.32"   Gusts: NA
Location:  37.92°N, 75.66°W
Report Text: KWAL 211054Z AUTO 01004KT 10SM OVC075 00/M03 A3032 RMK AO2 SLP262 T00001033
Loading
Personal Weather Stations






























Interactive Weather Map New forecast layout! Learn more

10-Day Weather Forecast

Advertisements
Track Severe Weather on mobile